° 8
SULAYMANIYAH INTERNATIONAL AIRPORT
  • SulyAir
  • SulyAir
1 1
Arrival

ArrivalsMore >>

Departure

DeparturesMore >>

TAF

TAF ORSU 241730Z 2418/2518 11008KT 4000 RA OVC035 
TEMPO 2420/2424 07008KT 2000 TSSHRA FEW030CB BKN035 OVC065
TEMPO 2506/2514 19018KT 2000 TSSHRA SCT030CB BKN035 BKN065=

METARs

METAR ORSU 241900Z 06007KT 6000 RA OVC030 10/10 Q1007=